Weather observations for the past three days for
Dodge Center Airport
Metric (Imperial)
Date Time (cdt) Wind (kph) Vis. (km) Weather Sky Cond. Temperature (ºC) Relative Humidity Wind Chill (°C) Heat Index (°C) Pressure Precipitation (cm)
Air Dwpt 6 hour altimeter (cm) sea level (mb) 1 hr 3 hr 6 hr
Max. Min.
08 04:55 S 20 16.09 Fair CLR 4.5 -6 47% 1 75.67 0.0
08 04:35 S 19 16.09 Fair CLR 4.1 -6 48% 0 75.67 0.0
08 04:15 S 15 16.09 Fair CLR 2 -5.7 57% -2 75.67 0.0
08 03:55 S 15 16.09 Fair CLR 1 -5.4 63% -3 75.69 0.0
08 03:35 S 9 16.09 Fair CLR 2.1 -6.3 54% -0 75.69 0.0
08 03:15 S 17 16.09 Fair CLR 3.5 -6.5 48% 0 75.69 0.0
08 02:55 S 15 16.09 Fair CLR 2.1 -5.3 58% -1 75.72 0.0
08 02:35 S 15 16.09 Fair CLR 2.1 -6 55% -1 75.72 0.0
08 02:15 S 13 16.09 Fair CLR 2.9 -6.9 49% -0 75.72 0.0
08 01:55 S 15 16.09 Fair CLR 3.3 -7 47% 0 75.72 0.0
08 01:35 S 13 16.09 Fair CLR 3.6 -6.7 47% 1 75.74 0.0
08 01:15 S 17 16.09 Fair CLR 4.5 -6.2 46% 1 75.74 0.0
08 00:55 S 15 16.09 Fair CLR 3.4 -5 13 2.5 55% 0 75.74 0.0
08 00:35 S 17 16.09 Fair CLR 4.1 -5.7 49% 1 75.77 0.0
08 00:15 S 13 11.27 Fair CLR 2.6 -4.9 58% -0 75.77 0.0
07 23:55 S 15 16.09 Fair CLR 3.6 -5.2 53% 0 75.77 0.0
07 23:35 S 11 16.09 Fair CLR 3.1 -5.1 55% 0 75.77 0.0
07 23:15 SE 11 16.09 Fair CLR 5.1 -8.5 37% 3 75.79 0.0
07 22:55 SE 7 16.09 Fair CLR 5.6 -8.3 36% 4 75.79 0.0
07 22:35 E 7 16.09 Fair CLR 6.5 -8 35% 5 75.79 0.0
07 22:15 E 6 16.09 Fair CLR 5.9 -7 39% 75.79 0.0
07 21:55 E 7 16.09 Fair CLR 7.7 -7.8 33% 7 75.77 0.0
07 21:35 E 7 16.09 Fair CLR 7.3 -8.1 33% 6 75.77 0.0
07 21:15 E 6 16.09 Fair CLR 7.5 -7.4 34% 75.77 0.0
07 20:55 E 6 16.09 Fair CLR 10.1 -7.8 28% 75.72 0.0
07 20:35 NE 6 14.48 Fair CLR 11.1 -8 26% 75.72 0.0
07 20:15 N 6 16.09 Fair CLR 11.6 -7.9 25% 75.72 0.0
07 19:55 NW 7 14.48 Fair CLR 11.5 -6 29% 75.72 0.0
07 19:35 N 11 16.09 Fair CLR 12.1 -6.1 28% 75.72 0.0
07 19:15 N 13 16.09 Fair CLR 12.6 -5.6 28% 75.72 0.0
07 18:55 N 15 16.09 Fair CLR 13.1 -6.3 14 11.4 26% 75.72 0.0
07 18:35 NW 15 16.09 Fair CLR 13.3 -6 26% 75.72 0.0
07 18:15 NW 13 16.09 Fair CLR 13.4 -6.6 25% 75.72 0.0
07 17:55 NW 13 16.09 Fair CLR 13.6 -6.6 24% 75.72 0.0
07 17:35 NW 15 16.09 Fair CLR 13.5 -5.7 26% 75.74 0.0
07 17:15 W 22 16.09 Fair CLR 13.7 -6.4 24% 75.74 0.0
07 16:55 W 15 16.09 Fair CLR 14 -6 25% 75.74 0.0
07 16:35 NW 20 G 33 16.09 Fair CLR 13.5 -6.3 25% 75.74 0.0
07 16:15 NW 20 G 28 16.09 Fair CLR 13.8 -5.2 27% 75.74 0.0
07 15:55 NW 19 G 33 16.09 Fair CLR 13.5 -6.4 25% 75.77 0.0
07 15:35 NW 13 16.09 Fair CLR 13.6 -5.7 26% 75.77 0.0
07 15:15 NW 17 16.09 Fair CLR 13.5 -4.9 28% 75.77 0.0
07 14:55 NW 15 G 35 16.09 Fair CLR 12.8 -6.1 26% 75.79 0.0
07 14:35 NW 9 G 30 16.09 Fair CLR 13.1 -5.8 27% 75.79 0.0
07 14:15 NW 26 G 37 16.09 Fair CLR 12.5 -5.9 27% 75.79 0.0
07 13:55 NW 22 G 33 16.09 Fair CLR 12.7 -4.3 31% 75.79 0.0
07 13:35 W 22 16.09 Fair CLR 12.8 -5 29% 75.82 0.0
07 13:15 N 20 G 31 16.09 Fair CLR 12.1 -4.2 32% 75.82 0.0
07 12:55 N 15 16.09 Fair CLR 11.2 -5.7 11.7 2.4 30% 75.84 0.0
07 12:35 NW 22 16.09 Fair CLR 11.5 -5 31% 75.87 0.0
07 12:15 NW 20 16.09 Fair CLR 11.2 -4.7 33% 75.87 0.0
07 11:55 NW 13 G 28 16.09 Fair CLR 10.5 -5.3 33% 75.87 0.0
07 11:35 N 20 G 28 16.09 Fair CLR 10 -5.8 33% 8 75.87 0.0
07 11:15 NW 17 16.09 Fair CLR 9.9 -5.3 34% 8 75.9 0.0
07 10:55 NW 15 16.09 Fair CLR 9.5 -4.6 37% 8 75.9 0.0
07 10:35 NW 19 16.09 Fair CLR 9.6 -4.2 38% 7 75.9 0.0
07 10:15 N 9 16.09 Fair CLR 9.1 -3.8 40% 8 75.9 0.0
07 09:55 W 6 16.09 Fair CLR 8.2 -3.4 44% 75.92 0.0
07 09:35 NW 11 16.09 A Few Clouds FEW085 8.1 -2.8 46% 6 75.92 0.0
07 09:15 N 11 16.09 Overcast OVC085 7.5 -2.9 48% 6 75.92 0.0
07 08:55 NW 7 16.09 Overcast SCT080 OVC095 7.5 -3.9 45% 6 75.95 0.0
07 08:35 Calm 16.09 Overcast FEW070 OVC095 6.9 -3.6 48% 75.95 0.0
07 08:15 Calm 14.48 Mostly Cloudy FEW049 BKN065 BKN085 5.7 -1.1 62% 75.95 0.0
07 07:55 Calm 16.09 Overcast FEW050 BKN070 OVC080 4.1 -0.7 71% 75.95 0.0
07 07:35 Calm 14.48 Overcast FEW046 OVC070 4.1 -1.5 67% 75.95 0.0
07 07:15 W 6 14.48 Overcast SCT046 OVC070 3.4 -0.5 76% 75.97 0.0
07 06:55 Calm 16.09 Overcast SCT080 OVC090 2 -2.7 2.3 -0.9 71% 75.95 0.0
07 06:35 SW 6 16.09 Overcast OVC085 1.2 -2.2 78% 75.95 0.0
07 06:15 W 7 16.09 Overcast FEW065 OVC080 2 -2.2 74% 0 75.95 0.0
07 05:55 SW 6 16.09 Overcast BKN090 OVC100 1.1 -4.3 68% 75.95 0.0
07 05:35 Calm 16.09 Overcast FEW042 SCT065 OVC090 0.7 -4.4 69% 75.95 0.0
07 05:15 Calm 16.09 Overcast FEW042 SCT060 SCT080 SCT090 OVC110 0.6 -4.4 70% 75.95 0.0
07 04:55 SW 7 16.09 Partly Cloudy FEW090 SCT110 -0.5 -4.5 75% -3 75.97 0.0
07 04:35 SW 6 16.09 A Few Clouds FEW090 -0.2 -5 70% 75.97 0.0
07 04:15 SW 6 16.09 Fair CLR 0.5 -4.8 68% 75.97 0.0
07 03:55 S 9 16.09 Fair CLR -0.1 -3.7 77% -3 75.97 0.0
07 03:35 S 9 16.09 A Few Clouds FEW110 0.2 -3.3 78% -3 76 0.0
07 03:15 S 7 16.09 Mostly Cloudy BKN110 2.1 -3.9 65% 0 76 0.0
07 02:55 S 7 16.09 Overcast FEW085 OVC110 1.7 -3.1 71% -0 76 0.0
07 02:35 S 6 16.09 Overcast SCT080 OVC100 1.9 -3.2 69% 76.02 0.0
07 02:15 SW 6 16.09 Overcast SCT080 OVC095 1.5 -2.2 77% 76.02 0.0
07 01:55 SW 6 16.09 Overcast OVC085 1.1 -2.6 77% 76.05 0.0
07 01:35 Calm 16.09 Overcast FEW060 OVC085 1.4 -4.1 67% 76.05 0.0
07 01:15 Calm 16.09 Overcast BKN080 OVC100 0.9 -4.3 69% 76.07 0.0
07 00:55 Calm 16.09 Overcast BKN080 OVC100 0.4 -5 7.6 -0.2 67% 76.07 0.0
07 00:35 Calm 14.48 Overcast FEW070 OVC085 0.2 -6 63% 76.07 0.0
07 00:15 Calm 16.09 Mostly Cloudy BKN095 0.1 -5.5 66% 76.07 0.0
06 23:55 Calm 16.09 Fair CLR -0.1 -6.5 62% 76.07 0.0
06 23:35 Calm 14.48 Fair CLR 0.4 -6 63% 76.07 0.0
06 23:15 Calm 14.48 Fair CLR 1.5 -5.4 61% 76.1 0.0
06 22:55 Calm 9.66 Fair with Haze CLR 1.8 -5.5 59% 76.1 0.0
06 22:35 Calm 11.27 Fair CLR 2 -5.4 58% 76.1 0.0
06 22:15 Calm 16.09 Fair CLR 2.1 -5.4 58% 76.1 0.0
06 21:55 Calm 16.09 Fair CLR 2.1 -4.8 61% 76.12 0.0
06 21:35 NW 6 16.09 Fair CLR 3.6 -5 54% 76.15 0.0
06 21:15 NW 6 16.09 Fair CLR 4.6 -5.3 49% 76.15 0.0
06 20:55 N 7 16.09 Fair CLR 4.3 -4.9 52% 3 76.12 0.0
06 20:35 NW 11 14.48 Fair CLR 4.1 -4.5 54% 2 76.12 0.0
06 20:15 NW 13 16.09 Fair CLR 5.3 -4.6 49% 3 76.12 0.0
06 19:55 NW 19 16.09 Fair CLR 6.5 -4.9 44% 3 76.12 0.0
06 19:35 NW 20 16.09 Partly Cloudy SCT055 6.7 -4.1 46% 3 76.12 0.0
06 19:15 NW 22 16.09 Mostly Cloudy BKN055 7.4 -4.4 43% 4 76.12 0.0
06 18:55 W 20 16.09 Overcast OVC055 7.6 -4.4 8.4 4.9 43% 5 76.12 0.0
06 18:35 NW 15 16.09 Overcast OVC055 7.8 -3.9 44% 6 76.12 0.0
06 18:15 NW 20 16.09 Partly Cloudy SCT055 7.1 -4.6 44% 4 76.12 0.0
06 17:55 W 22 G 37 16.09 A Few Clouds FEW055 8.2 -4.1 42% 5 76.12 0.0
06 17:35 W 17 16.09 A Few Clouds FEW055 7.5 -4.6 42% 5 76.15 0.0
06 17:15 NW 28 G 33 16.09 Mostly Cloudy BKN050 7.6 -4.3 43% 4 76.15 0.0
06 16:55 W 19 G 37 16.09 Overcast OVC050 8.1 -3.8 43% 5 76.15 0.0
06 16:35 W 15 16.09 Overcast OVC049 6.8 -4.3 45% 4 76.17 0.0
06 16:15 NW 20 G 37 16.09 Overcast OVC049 6.8 -3.7 47% 4 76.17 0.0
06 15:55 NW 22 G 35 16.09 Overcast OVC047 6.6 -3.8 48% 3 76.2 0.0
06 15:35 W 24 G 31 16.09 Overcast OVC047 6.3 -4.2 47% 3 76.2 0.0
06 15:15 W 22 16.09 Overcast OVC046 5.8 -4.3 49% 2 76.2 0.0
06 14:55 NW 24 G 31 16.09 Overcast OVC045 5.7 -4.2 49% 2 76.2 0.0
06 14:35 NW 19 16.09 Overcast OVC043 5.4 -4.4 50% 2 76.23 0.0
06 14:15 NW 24 G 33 16.09 Overcast OVC045 4.9 -4.8 50% 1 76.23 0.0
06 13:55 NW 22 16.09 Overcast OVC047 5.2 -4.6 50% 1 76.23 0.0
06 13:35 NW 22 16.09 Overcast OVC047 5.1 -4.2 51% 1 76.23 0.0
06 13:15 NW 20 16.09 Overcast OVC048 5.3 -4 51% 2 76.23 0.0
06 12:55 NW 22 16.09 Overcast OVC047 4.7 -4.7 5.1 1.2 51% 1 76.23 0.0
06 12:35 NW 19 16.09 Overcast OVC050 5 -4.6 50% 2 76.23 0.0
06 12:15 NW 17 16.09 Overcast OVC045 4.8 -4.3 52% 2 76.25 0.0
06 11:55 W 17 G 31 16.09 Overcast OVC045 4.4 -4.4 53% 1 76.25 0.0
06 11:35 NW 22 16.09 Overcast SCT040 OVC049 4.3 -4.3 54% 0 76.25 0.0
06 11:15 W 17 16.09 Overcast FEW039 OVC050 4.5 -4.3 53% 1 76.25 0.0
06 10:55 NW 24 16.09 Overcast FEW037 OVC049 4.2 -4.3 54% -0 76.23 0.0
06 10:35 NW 19 16.09 Overcast OVC049 4.2 -3.9 56% 1 76.23 0.0
06 10:15 NW 17 16.09 Overcast OVC049 3.8 -4.2 56% 0 76.23 0.0
06 09:55 NW 17 16.09 Overcast OVC049 3.5 -3.8 59% 0 76.23 0.0
06 09:35 NW 15 16.09 Overcast OVC049 3.4 -3.8 60% 0 76.23 0.0
06 09:15 NW 11 16.09 Overcast OVC049 3.3 -3.5 61% 1 76.23 0.0
06 08:55 NW 13 14.48 Overcast OVC049 2.9 -3.7 62% -0 76.2 0.0
06 08:35 W 11 16.09 Overcast OVC049 2.9 -3 66% 0 76.2 0.0
06 08:15 W 11 14.48 Overcast OVC050 2.6 -3.8 63% -0 76.2 0.0
06 07:55 NW 9 16.09 Overcast OVC050 2.7 -4 62% 0 76.2 0.0
06 07:35 NW 11 16.09 Overcast OVC050 2.2 -4.1 63% -1 76.15 0.0
06 07:15 NW 9 16.09 Mostly Cloudy BKN050 1.5 -4.4 65% -1 76.12 0.0
06 06:55 NW 9 14.48 A Few Clouds FEW050 0.5 -4.4 2.7 -1.6 70% -2 76.12 0.0
06 06:35 W 7 14.48 Fair CLR -0.1 -4.7 71% -2 76.1 0.0
06 06:15 NW 9 12.87 Fair CLR -1.6 -4.7 80% -5 76.07 0.0
06 05:55 NW 9 14.48 Fair CLR -1.3 -4.8 77% -4 76.1 0.0
06 05:35 NW 11 14.48 Fair CLR -1.1 -4.8 76% -5 76.1 0.0
06 05:15 NW 9 16.09 Fair CLR -0.9 -4.9 75% -4 76.07 0.0
06 04:55 NW 9 16.09 Fair CLR -0.7 -4.8 74% -4 76.07 0.0
06 04:35 NW 11 16.09 Fair CLR -0.5 -4.6 74% -4 76.05 0.0
06 04:15 NW 13 14.48 Fair CLR -0.2 -4.5 73% -4 76.05 0.0
06 03:55 NW 13 16.09 Fair CLR 0.3 -4.5 71% -3 76.02 0.0
06 03:35 NW 13 16.09 Fair CLR 0.5 -4.5 70% -3 76.02 0.0
06 03:15 NW 13 16.09 Fair CLR 0.7 -4.3 70% -3 76.02 0.0
06 02:55 NW 13 16.09 Fair CLR 0.8 -4.3 69% -3 76.02 0.0
06 02:35 NW 13 16.09 Fair CLR 1.1 -4.5 67% -2 76.02 0.0
06 02:15 NW 13 16.09 Fair CLR 1.2 -4.4 67% -2 76 0.0
06 01:55 NW 13 16.09 Fair CLR 1.6 -4.4 65% -2 76 0.0
06 01:35 NW 15 16.09 Fair CLR 2 -4.5 62% -2 75.97 0.0
06 01:15 NW 17 16.09 Fair CLR 2.4 -4.5 61% -1 75.97 0.0
06 00:55 NW 17 16.09 Fair CLR 2.8 -4.6 8.9 2.7 59% -1 75.97 0.0
06 00:35 NW 17 16.09 Fair CLR 3 -4.6 58% -1 75.95 0.0
06 00:15 NW 15 16.09 Fair CLR 3.4 -4.6 56% 0 75.95 0.0
05 23:55 NW 19 16.09 Fair CLR 4.3 -4.9 52% 1 75.95 0.0
05 23:35 NW 20 16.09 Fair CLR 4.4 -4.8 52% 1 75.95 0.0
05 23:15 NW 19 16.09 Fair CLR 4.7 -4.7 51% 1 75.95 0.0
05 22:55 NW 19 16.09 Fair CLR 5.3 -4.6 49% 2 75.92 0.0
05 22:35 NW 19 16.09 Partly Cloudy SCT075 5.4 -4.5 49% 2 75.92 0.0
05 22:15 NW 20 16.09 Overcast OVC075 6.2 -4.6 46% 3 75.92 0.0
05 21:55 NW 11 16.09 Mostly Cloudy BKN075 5.9 -4.6 47% 4 75.9 0.0
05 21:35 NW 13 16.09 Overcast OVC080 6.2 -4.9 45% 4 75.9 0.0
05 21:15 NW 17 16.09 Overcast OVC080 6.9 -5.2 42% 4 75.87 0.0
05 20:55 NW 17 16.09 Overcast OVC080 7.3 -5.2 41% 5 75.84 0.0
05 20:35 NW 19 16.09 Overcast OVC075 7.5 -5.2 40% 5 75.82 0.0
05 20:15 NW 17 16.09 Overcast OVC075 7.7 -4.8 41% 5 75.82 0.0
05 19:55 NW 24 16.09 Overcast OVC080 8.3 -5.2 38% 5 75.79 0.0
05 19:35 NW 22 16.09 Overcast OVC080 8.4 -5.4 37% 5 75.79 0.0
05 19:15 NW 22 14.48 Overcast OVC075 8.7 -4.9 38% 6 75.77 0.0
05 18:55 NW 24 16.09 Overcast OVC070 8.8 -4.8 11.2 8.5 38% 6 75.77 0.0
05 18:35 NW 22 G 35 16.09 Overcast OVC070 8.9 -4.8 38% 6 75.77 0.0
05 18:15 NW 17 16.09 Overcast OVC075 9.1 -4.2 39% 7 75.77 0.0
05 17:55 NW 20 16.09 Overcast OVC075 9.2 -4.4 38% 7 75.77 0.0
05 17:35 NW 20 16.09 Overcast OVC075 9.6 -3.6 40% 7 75.77 0.0
05 17:15 NW 26 16.09 Overcast OVC075 9.5 -4 39% 7 75.77 0.0
05 16:55 NW 24 16.09 Overcast OVC070 9.5 -4.5 37% 7 75.77 0.0
05 16:35 NW 20 16.09 Overcast OVC075 9.5 -4.1 38% 7 75.77 0.0
05 16:15 NW 26 G 41 16.09 Mostly Cloudy BKN065 BKN075 9.6 -4.1 38% 7 75.77 0.0
05 15:55 W 22 G 31 16.09 Overcast SCT065 OVC080 10.5 -3.4 38% 75.79 0.0
05 15:35 NW 20 16.09 Overcast OVC070 10 -3.2 40% 8 75.79 0.0
05 15:15 NW 28 G 37 16.09 Overcast OVC070 9.7 -3.8 39% 7 75.79 0.0
05 14:55 NW 22 16.09 Overcast BKN065 OVC080 9.2 -3.8 40% 6 75.82 0.0
05 14:35 NW 30 16.09 Overcast SCT060 OVC075 10 -3.3 39% 7 75.82 0.0
05 14:15 W 24 G 35 14.48 Overcast SCT060 OVC075 9.6 -3.9 39% 7 75.82 0.0
05 13:55 W 22 16.09 Overcast OVC070 9 -4.3 39% 6 75.82 0.0
05 13:35 NW 26 G 39 16.09 Overcast OVC070 8.6 -4.3 40% 5 75.82 0.0
05 13:15 NW 33 16.09 Overcast and Breezy OVC070 9.2 -4.1 39% 6 75.79 0.0
05 12:55 NW 22 G 37 16.09 Overcast OVC060 8.6 -3.5 9.5 3 43% 6 75.82 0.0
05 12:35 NW 22 G 37 16.09 Overcast BKN060 OVC070 8.6 -4.3 40% 6 75.82 0.0
05 12:15 W 26 16.09 Mostly Cloudy BKN060 BKN070 8.6 -4.1 41% 5 75.79 0.0
05 11:55 W 22 G 33 16.09 Mostly Cloudy BKN070 9.4 -3.8 40% 7 75.82 0.0
05 11:35 NW 19 G 35 16.09 Overcast OVC070 8.2 -4.3 41% 6 75.82 0.0
05 11:15 NW 24 G 39 16.09 Mostly Cloudy BKN055 BKN075 8.9 -3.6 41% 6 75.82 0.0
05 10:55 NW 26 G 35 16.09 Overcast OVC055 8.1 -3.6 44% 5 75.82 0.0
05 10:35 NW 22 G 33 16.09 Mostly Cloudy BKN055 7.4 -3.9 45% 4 75.82 0.0
05 10:15 NW 19 16.09 A Few Clouds FEW050 8 -3.7 44% 5 75.79 0.0
05 09:55 NW 15 16.09 Fair CLR 7.2 -3.7 46% 5 75.79 0.0
05 09:35 N 19 16.09 Fair CLR 6.8 -4.2 46% 4 75.79 0.0
05 09:15 NW 19 16.09 Fair CLR 6.5 -3.4 50% 3 75.79 0.0
05 08:55 N 15 16.09 Fair CLR 5.8 -3.4 52% 3 75.77 0.0
05 08:35 NW 17 16.09 Fair CLR 5.4 -3.3 54% 2 75.77 0.0
05 08:15 NW 17 14.48 Fair CLR 5.3 -2.3 58% 2 75.77 0.0
05 07:55 NW 13 14.48 Fair CLR 4.4 -1.9 64% 2 75.74 0.0
05 07:35 NW 13 14.48 Fair CLR 3.9 -2.1 65% 1 75.72 0.0
05 07:15 NW 11 16.09 Fair CLR 3.6 -2.7 64% 1 75.72 0.0
05 06:55 NW 9 16.09 Fair CLR 2.7 -2.9 5.5 -0.2 67% 0 75.69 0.0
05 06:35 NW 13 14.48 Fair CLR 2.1 -3.1 69% -1 75.67 0.0
05 06:15 NW 11 14.48 Fair CLR 1.6 -3.2 71% -1 75.62 0.0
05 05:55 NW 13 14.48 Fair CLR 1.8 -3.3 69% -1 75.59 0.0
05 05:35 NW 13 14.48 Fair CLR 1.7 -3.2 70% -2 75.59 0.0
05 05:15 W 11 16.09 Fair CLR 1.1 -3.2 73% -2 75.57 0.0
Date Time (cdt) Wind (kph) Vis. (km) Weather Sky Cond. Air Dwpt Max. Min. Relative Humidity Wind Chill (°C) Heat Index (°C) altimeter (cm) sea level (mb) 1 hr 3 hr 6 hr
6 hour
Temperature (ºC) Pressure Precipitation (cm)